WetterOnline ( http://www.wetteronline.at )

Wetter aktuell Marburg

Aktuelles Wetter: Neu-Ulrichstein (350m)

6-stündlich | Neueste Meldungen
Ortszeit Temperatur Wetter
Mi, 20.02. 7:00 0.9° C bedeckt
Mi, 20.02. 1:00 3.0° C wolkig
Di, 19.02. 19:00 5.2° C wolkenlos
Di, 19.02. 13:00 6.2° C leicht bewölkt
Di, 19.02. 7:00 3.6° C bedeckt
Di, 19.02. 1:00 5.5° C wolkig
Mo, 18.02. 19:00 8.6° C wolkig
Mo, 18.02. 13:00 9.6° C wolkenlos
Ortszeit Temperatur Wetter
Mi, 20.02. 12:30 6.2° C bedeckt
Mi, 20.02. 12:20 6.2° C bedeckt
Mi, 20.02. 12:10 5.4° C bedeckt
Mi, 20.02. 12:00 5.6° C -
Mi, 20.02. 11:50 5.6° C -
Mi, 20.02. 11:40 5.0° C -
Mi, 20.02. 11:30 4.8° C bedeckt
Mi, 20.02. 11:00 4.5° C bedeckt
Mi, 20.02. 10:30 3.2° C bewölkt
Mi, 20.02. 10:00 2.1° C wolkig
Mi, 20.02. 9:30 1.8° C bedeckt
Ortszeit Relative Feuchte Sichtweite
Mi, 20.02. 7:00 95% 6 km
Mi, 20.02. 1:00 80% 35 km
Di, 19.02. 19:00 63% 45 km
Di, 19.02. 13:00 85% 19 km
Di, 19.02. 7:00 75% 35 km
Di, 19.02. 1:00 64% 40 km
Mo, 18.02. 19:00 54% 35 km
Mo, 18.02. 13:00 54% 35 km
Ortszeit Relative Feuchte Sichtweite
Mi, 20.02. 12:30 78% 24 km
Mi, 20.02. 12:20 78% -
Mi, 20.02. 12:10 80% -
Mi, 20.02. 12:00 81% 18 km
Mi, 20.02. 11:50 81% -
Mi, 20.02. 11:40 83% -
Mi, 20.02. 11:30 83% 18 km
Mi, 20.02. 11:00 84% 19 km
Mi, 20.02. 10:30 87% 15 km
Mi, 20.02. 10:00 91% 9 km
Mi, 20.02. 9:30 92% 9 km
Ortszeit Niederschlagsmenge Niederschlagsart
Mi, 20.02. 7:00 0.0 l/m2 in 12 Std. -
Mi, 20.02. 1:00 0.0 l/m2 in 6 Std. -
Di, 19.02. 19:00 0.4 l/m2 in 12 Std. -
Di, 19.02. 13:00 0.4 l/m2 in 6 Std. Regen
Di, 19.02. 7:00 0.0 l/m2 in 12 Std. -
Di, 19.02. 1:00 0.0 l/m2 in 6 Std. -
Mo, 18.02. 19:00 0.0 l/m2 in 12 Std. -
Mo, 18.02. 13:00 0.0 l/m2 in 6 Std. -
Ortszeit Niederschlagsmenge Niederschlagsart
Mi, 20.02. 12:30 0.0 l/m2 in 1 Std. -
Mi, 20.02. 12:20 keine Meldung -
Mi, 20.02. 12:10 keine Meldung -
Mi, 20.02. 12:00 0.0 l/m2 in 1 Std. -
Mi, 20.02. 11:50 keine Meldung -
Mi, 20.02. 11:40 keine Meldung -
Mi, 20.02. 11:30 0.0 l/m2 in 1 Std. -
Mi, 20.02. 11:00 0.0 l/m2 in 1 Std. -
Mi, 20.02. 10:30 0.0 l/m2 in 1 Std. -
Mi, 20.02. 10:00 0.0 l/m2 in 1 Std. -
Mi, 20.02. 9:30 0.0 l/m2 in 1 Std. -
Ortszeit Stärke Spitze Richtung
km/h Bft. km/h Grad Sektor
Mi, 20.02. 7:00 15 3 22 180° S
Mi, 20.02. 1:00 13 3 20 190° S
Di, 19.02. 19:00 13 3 33 220° SW
Di, 19.02. 13:00 19 3 31 200° S
Di, 19.02. 7:00 18 3 32 180° S
Di, 19.02. 1:00 18 3 25 180° S
Mo, 18.02. 19:00 11 2 32 190° S
Mo, 18.02. 13:00 18 3 29 180° S
Ortszeit Stärke Spitze Richtung
km/h Bft. km/h Grad Sektor
Mi, 20.02. 12:30 13 3 22 180° S
Mi, 20.02. 12:20 13 3 - 180° S
Mi, 20.02. 12:10 13 3 - 180° S
Mi, 20.02. 12:00 18 3 22 160° S
Mi, 20.02. 11:50 18 3 - 160° S
Mi, 20.02. 11:40 17 3 - 160° S
Mi, 20.02. 11:30 13 3 20 180° S
Mi, 20.02. 11:00 13 3 24 200° S
Mi, 20.02. 10:30 14 3 25 180° S
Mi, 20.02. 10:00 22 4 29 180° S
Mi, 20.02. 9:30 14 3 22 180° S
Ortszeit Untergrenze Bedeckung Gattung
total tief tief mittel hoch
Mi, 20.02. 7:00 3600 m 8/8 8/8 - - -
Mi, 20.02. 1:00 7800 m 7/8 0/8 - - -
Di, 19.02. 19:00 - 0/8 0/8 - - -
Di, 19.02. 13:00 870 m 3/8 1/8 - - -
Di, 19.02. 7:00 1500 m 8/8 8/8 - - -
Di, 19.02. 1:00 7200 m 7/8 0/8 - - -
Mo, 18.02. 19:00 6900 m 6/8 5/8 - - -
Mo, 18.02. 13:00 - 0/8 0/8 - - -
Ortszeit Bedeckungsgrad in Achtel und Wolkenuntergrenze
Mi, 20.02. 12:30 8(3000m) 8(4500m) 8(4800m)
Mi, 20.02. 12:20 8(3000m) 8(4500m) 8(4800m)
Mi, 20.02. 12:10 8(3000m) 8(4500m) 8(5100m)
Mi, 20.02. 12:00 -
Mi, 20.02. 11:50 -
Mi, 20.02. 11:40 -
Mi, 20.02. 11:30 8(3300m)
Mi, 20.02. 11:00 8(3300m)
Mi, 20.02. 10:30 6(810m) 8(3300m)
Mi, 20.02. 10:00 1(780m) 8(3300m) 8(4500m)
Mi, 20.02. 9:30 7(3300m) 8(4500m)
Ortszeit Luftdruck NN (hPa) Tendenz (hPa in 3 Std.)
Mi, 20.02. 7:00 1024 + 0,3
Mi, 20.02. 1:00 1023 + 0,5
Di, 19.02. 19:00 1021 + 1,0
Di, 19.02. 13:00 1020 + 0,6
Di, 19.02. 7:00 1018 + 0,4
Di, 19.02. 1:00 1018 - 0,2
Mo, 18.02. 19:00 1018 - 1,1
Mo, 18.02. 13:00 1020 - 1,3
Ortszeit Luftdruck NN (hPa) Tendenz (hPa in 3 Std.)
Mi, 20.02. 12:30 1025 + 0,9
Mi, 20.02. 12:20 1025 keine Meldung
Mi, 20.02. 12:10 1025 keine Meldung
Mi, 20.02. 12:00 1025 + 1,3
Mi, 20.02. 11:50 1025 keine Meldung
Mi, 20.02. 11:40 1025 keine Meldung
Mi, 20.02. 11:30 1025 + 1,5
Mi, 20.02. 11:00 1025 + 1,6
Mi, 20.02. 10:30 1025 + 1,7
Mi, 20.02. 10:00 1025 + 1,8
Mi, 20.02. 9:30 1025 + 1,4
Ortszeit Schneehöhe (cm)
Mi, 20.02. 7:00 0
Mi, 20.02. 1:00 0
Di, 19.02. 19:00 0
Di, 19.02. 13:00 0
Di, 19.02. 7:00 0
Di, 19.02. 1:00 0
Mo, 18.02. 19:00 0
Mo, 18.02. 13:00 0
Ortszeit Schneehöhe (cm)
Mi, 20.02. 12:30 0
Mi, 20.02. 12:20 0
Mi, 20.02. 12:10 0
Mi, 20.02. 12:00 0
Mi, 20.02. 11:50 0
Mi, 20.02. 11:40 0
Mi, 20.02. 11:30 0
Mi, 20.02. 11:00 0
Mi, 20.02. 10:30 0
Mi, 20.02. 10:00 0
Mi, 20.02. 9:30 0
Link zu dieser Seite / Seite empfehlen

Das Wetter in ...